sensor_id;sensor_type;location;lat;lon;timestamp;temperature;humidity
5743;DHT22;2896;53.500;10.020;2022-08-01T00:01:23;18.70;99.90
5743;DHT22;2896;53.500;10.020;2022-08-01T00:03:50;16.10;99.90
5743;DHT22;2896;53.500;10.020;2022-08-01T00:06:18;18.70;99.90
5743;DHT22;2896;53.500;10.020;2022-08-01T00:08:45;18.70;99.90
5743;DHT22;2896;53.500;10.020;2022-08-01T00:11:11;18.60;99.90
5743;DHT22;2896;53.500;10.020;2022-08-01T00:13:39;18.70;99.90
5743;DHT22;2896;53.500;10.020;2022-08-01T00:16:05;19.30;99.90
5743;DHT22;2896;53.500;10.020;2022-08-01T00:18:32;18.70;99.90
5743;DHT22;2896;53.500;10.020;2022-08-01T00:20:59;18.70;99.90
5743;DHT22;2896;53.500;10.020;2022-08-01T00:23:27;18.70;99.90
5743;DHT22;2896;53.500;10.020;2022-08-01T00:25:54;18.70;99.90
5743;DHT22;2896;53.500;10.020;2022-08-01T00:28:21;18.70;99.90
5743;DHT22;2896;53.500;10.020;2022-08-01T00:30:47;18.70;99.90
5743;DHT22;2896;53.500;10.020;2022-08-01T00:33:14;18.70;99.90
5743;DHT22;2896;53.500;10.020;2022-08-01T00:35:41;18.90;99.90
5743;DHT22;2896;53.500;10.020;2022-08-01T00:38:07;18.70;99.90
5743;DHT22;2896;53.500;10.020;2022-08-01T00:40:35;18.70;99.90
5743;DHT22;2896;53.500;10.020;2022-08-01T00:43:02;18.70;99.90
5743;DHT22;2896;53.500;10.020;2022-08-01T00:45:28;18.60;99.90
5743;DHT22;2896;53.500;10.020;2022-08-01T00:47:55;18.60;99.90
5743;DHT22;2896;53.500;10.020;2022-08-01T00:50:22;18.60;99.90
5743;DHT22;2896;53.500;10.020;2022-08-01T00:52:49;18.70;99.90
5743;DHT22;2896;53.500;10.020;2022-08-01T00:55:19;18.70;99.90
5743;DHT22;2896;53.500;10.020;2022-08-01T00:57:47;18.70;99.90
5743;DHT22;2896;53.500;10.020;2022-08-01T01:00:14;18.70;99.90
5743;DHT22;2896;53.500;10.020;2022-08-01T01:02:41;18.70;99.90
5743;DHT22;2896;53.500;10.020;2022-08-01T01:05:09;18.70;99.90
5743;DHT22;2896;53.500;10.020;2022-08-01T01:07:40;19.10;99.90
5743;DHT22;2896;53.500;10.020;2022-08-01T01:10:14;18.60;99.90
5743;DHT22;2896;53.500;10.020;2022-08-01T01:12:46;18.60;99.90
5743;DHT22;2896;53.500;10.020;2022-08-01T01:15:18;18.60;99.90
5743;DHT22;2896;53.500;10.020;2022-08-01T01:17:52;18.60;99.90
5743;DHT22;2896;53.500;10.020;2022-08-01T01:20:24;18.60;99.90
5743;DHT22;2896;53.500;10.020;2022-08-01T01:23:10;18.60;99.90
5743;DHT22;2896;53.500;10.020;2022-08-01T01:26:04;18.60;99.90
5743;DHT22;2896;53.500;10.020;2022-08-01T01:28:53;18.60;99.90
5743;DHT22;2896;53.500;10.020;2022-08-01T01:31:24;18.60;99.90
5743;DHT22;2896;53.500;10.020;2022-08-01T01:33:53;18.60;99.90
5743;DHT22;2896;53.500;10.020;2022-08-01T01:36:21;18.60;99.90
5743;DHT22;2896;53.500;10.020;2022-08-01T01:38:51;18.70;99.90
5743;DHT22;2896;53.500;10.020;2022-08-01T01:41:20;18.70;99.90
5743;DHT22;2896;53.500;10.020;2022-08-01T01:43:47;18.60;99.90
5743;DHT22;2896;53.500;10.020;2022-08-01T01:46:20;18.60;99.90
5743;DHT22;2896;53.500;10.020;2022-08-01T01:48:49;18.60;99.90
5743;DHT22;2896;53.500;10.020;2022-08-01T01:51:17;18.60;99.90
5743;DHT22;2896;53.500;10.020;2022-08-01T01:53:45;18.60;99.90
5743;DHT22;2896;53.500;10.020;2022-08-01T01:56:15;18.50;99.90
5743;DHT22;2896;53.500;10.020;2022-08-01T01:58:43;18.50;99.90
5743;DHT22;2896;53.500;10.020;2022-08-01T02:01:11;20.10;99.90
5743;DHT22;2896;53.500;10.020;2022-08-01T02:03:40;18.50;99.90
5743;DHT22;2896;53.500;10.020;2022-08-01T02:06:08;18.50;99.90
5743;DHT22;2896;53.500;10.020;2022-08-01T02:08:35;18.50;99.90
5743;DHT22;2896;53.500;10.020;2022-08-01T02:11:04;18.50;99.90
5743;DHT22;2896;53.500;10.020;2022-08-01T02:13:52;18.50;99.90
5743;DHT22;2896;53.500;10.020;2022-08-01T02:16:21;18.50;99.90
5743;DHT22;2896;53.500;10.020;2022-08-01T02:18:50;18.50;99.90
5743;DHT22;2896;53.500;10.020;2022-08-01T02:21:23;18.50;99.90
5743;DHT22;2896;53.500;10.020;2022-08-01T02:23:51;18.50;99.90
5743;DHT22;2896;53.500;10.020;2022-08-01T02:26:19;18.60;99.90
5743;DHT22;2896;53.500;10.020;2022-08-01T02:28:51;18.60;99.90
5743;DHT22;2896;53.500;10.020;2022-08-01T02:31:21;18.50;99.90
5743;DHT22;2896;53.500;10.020;2022-08-01T02:33:54;18.50;99.90
5743;DHT22;2896;53.500;10.020;2022-08-01T02:36:25;18.50;99.90
5743;DHT22;2896;53.500;10.020;2022-08-01T02:38:54;18.50;99.90
5743;DHT22;2896;53.500;10.020;2022-08-01T02:41:24;18.50;99.90
5743;DHT22;2896;53.500;10.020;2022-08-01T02:43:53;18.40;99.90
5743;DHT22;2896;53.500;10.020;2022-08-01T02:46:27;18.50;99.90
5743;DHT22;2896;53.500;10.020;2022-08-01T02:48:57;18.50;99.90
5743;DHT22;2896;53.500;10.020;2022-08-01T02:51:26;18.50;99.90
5743;DHT22;2896;53.500;10.020;2022-08-01T02:53:53;18.50;99.90
5743;DHT22;2896;53.500;10.020;2022-08-01T02:56:21;18.40;99.90
5743;DHT22;2896;53.500;10.020;2022-08-01T02:58:49;18.50;99.90
5743;DHT22;2896;53.500;10.020;2022-08-01T03:01:17;18.50;15.60
5743;DHT22;2896;53.500;10.020;2022-08-01T03:03:45;18.50;1.00
5743;DHT22;2896;53.500;10.020;2022-08-01T03:06:14;18.50;99.90
5743;DHT22;2896;53.500;10.020;2022-08-01T03:08:41;18.40;99.90
5743;DHT22;2896;53.500;10.020;2022-08-01T03:11:09;18.40;99.90
5743;DHT22;2896;53.500;10.020;2022-08-01T03:13:37;18.40;99.90
5743;DHT22;2896;53.500;10.020;2022-08-01T03:16:05;18.40;99.90
5743;DHT22;2896;53.500;10.020;2022-08-01T03:18:32;18.40;38.10
5743;DHT22;2896;53.500;10.020;2022-08-01T03:21:00;18.40;99.90
5743;DHT22;2896;53.500;10.020;2022-08-01T03:23:30;18.40;1.00
5743;DHT22;2896;53.500;10.020;2022-08-01T03:26:01;18.50;99.90
5743;DHT22;2896;53.500;10.020;2022-08-01T03:28:29;18.40;1.00
5743;DHT22;2896;53.500;10.020;2022-08-01T03:30:58;18.40;99.90
5743;DHT22;2896;53.500;10.020;2022-08-01T03:33:25;18.40;1.00
5743;DHT22;2896;53.500;10.020;2022-08-01T03:35:54;18.30;1.00
5743;DHT22;2896;53.500;10.020;2022-08-01T03:38:23;18.40;1.00
5743;DHT22;2896;53.500;10.020;2022-08-01T03:40:55;18.30;1.00
5743;DHT22;2896;53.500;10.020;2022-08-01T03:43:27;18.30;1.00
5743;DHT22;2896;53.500;10.020;2022-08-01T03:46:01;18.30;99.90
5743;DHT22;2896;53.500;10.020;2022-08-01T03:48:32;18.40;99.90
5743;DHT22;2896;53.500;10.020;2022-08-01T03:51:02;18.30;74.80
5743;DHT22;2896;53.500;10.020;2022-08-01T03:53:30;18.30;1.00
5743;DHT22;2896;53.500;10.020;2022-08-01T03:56:01;18.40;1.00
5743;DHT22;2896;53.500;10.020;2022-08-01T03:58:29;18.30;1.00
5743;DHT22;2896;53.500;10.020;2022-08-01T04:00:56;18.40;99.90
5743;DHT22;2896;53.500;10.020;2022-08-01T04:03:23;18.40;68.80
5743;DHT22;2896;53.500;10.020;2022-08-01T04:05:50;18.30;1.00
5743;DHT22;2896;53.500;10.020;2022-08-01T04:08:17;18.40;61.20
5743;DHT22;2896;53.500;10.020;2022-08-01T04:10:43;18.30;1.00
5743;DHT22;2896;53.500;10.020;2022-08-01T04:13:11;18.40;8.80
5743;DHT22;2896;53.500;10.020;2022-08-01T04:15:38;18.40;1.00
5743;DHT22;2896;53.500;10.020;2022-08-01T04:18:05;18.40;1.00
5743;DHT22;2896;53.500;10.020;2022-08-01T04:20:32;18.40;1.00
5743;DHT22;2896;53.500;10.020;2022-08-01T04:22:58;18.40;1.00
5743;DHT22;2896;53.500;10.020;2022-08-01T04:25:29;18.40;1.00
5743;DHT22;2896;53.500;10.020;2022-08-01T04:28:00;18.50;1.00
5743;DHT22;2896;53.500;10.020;2022-08-01T04:30:33;18.40;1.00
5743;DHT22;2896;53.500;10.020;2022-08-01T04:33:01;18.40;1.00
5743;DHT22;2896;53.500;10.020;2022-08-01T04:35:31;18.50;1.00
5743;DHT22;2896;53.500;10.020;2022-08-01T04:38:00;18.50;1.00
5743;DHT22;2896;53.500;10.020;2022-08-01T04:40:28;18.50;1.00
5743;DHT22;2896;53.500;10.020;2022-08-01T04:42:54;18.50;1.00
5743;DHT22;2896;53.500;10.020;2022-08-01T04:45:21;18.50;1.00
5743;DHT22;2896;53.500;10.020;2022-08-01T04:47:51;18.50;1.00
5743;DHT22;2896;53.500;10.020;2022-08-01T04:50:18;18.40;1.00
5743;DHT22;2896;53.500;10.020;2022-08-01T04:52:47;18.50;28.50
5743;DHT22;2896;53.500;10.020;2022-08-01T04:55:14;18.70;84.60
5743;DHT22;2896;53.500;10.020;2022-08-01T04:57:44;18.50;62.50
5743;DHT22;2896;53.500;10.020;2022-08-01T05:00:12;18.50;94.90
5743;DHT22;2896;53.500;10.020;2022-08-01T05:02:39;18.50;98.80
5743;DHT22;2896;53.500;10.020;2022-08-01T05:05:07;18.50;99.90
5743;DHT22;2896;53.500;10.020;2022-08-01T05:07:35;18.50;99.90
5743;DHT22;2896;53.500;10.020;2022-08-01T05:10:03;18.60;99.90
5743;DHT22;2896;53.500;10.020;2022-08-01T05:12:30;18.50;99.90
5743;DHT22;2896;53.500;10.020;2022-08-01T05:14:57;18.60;99.90
5743;DHT22;2896;53.500;10.020;2022-08-01T05:17:24;18.50;99.90
5743;DHT22;2896;53.500;10.020;2022-08-01T05:19:51;18.60;99.90
5743;DHT22;2896;53.500;10.020;2022-08-01T05:22:19;18.60;99.90
5743;DHT22;2896;53.500;10.020;2022-08-01T05:24:45;18.50;52.40
5743;DHT22;2896;53.500;10.020;2022-08-01T05:27:12;18.60;32.70
5743;DHT22;2896;53.500;10.020;2022-08-01T05:29:39;18.50;3.70
5743;DHT22;2896;53.500;10.020;2022-08-01T05:32:06;18.50;10.80
5743;DHT22;2896;53.500;10.020;2022-08-01T05:34:33;18.50;24.60
5743;DHT22;2896;53.500;10.020;2022-08-01T05:36:59;18.60;1.00
5743;DHT22;2896;53.500;10.020;2022-08-01T05:39:28;18.50;1.00
5743;DHT22;2896;53.500;10.020;2022-08-01T05:41:55;18.50;1.00
5743;DHT22;2896;53.500;10.020;2022-08-01T05:44:21;18.90;1.00
5743;DHT22;2896;53.500;10.020;2022-08-01T05:46:48;18.50;1.00
5743;DHT22;2896;53.500;10.020;2022-08-01T05:49:15;18.50;1.00
5743;DHT22;2896;53.500;10.020;2022-08-01T05:51:41;18.50;46.50
5743;DHT22;2896;53.500;10.020;2022-08-01T05:54:08;18.60;71.90
5743;DHT22;2896;53.500;10.020;2022-08-01T05:56:36;18.60;46.00
5743;DHT22;2896;53.500;10.020;2022-08-01T05:59:02;18.60;67.60
5743;DHT22;2896;53.500;10.020;2022-08-01T06:01:29;18.50;99.90
5743;DHT22;2896;53.500;10.020;2022-08-01T06:03:56;18.50;99.90
5743;DHT22;2896;53.500;10.020;2022-08-01T06:06:22;18.60;99.90
5743;DHT22;2896;53.500;10.020;2022-08-01T06:08:49;18.70;99.90
5743;DHT22;2896;53.500;10.020;2022-08-01T06:11:17;18.60;75.50
5743;DHT22;2896;53.500;10.020;2022-08-01T06:13:45;18.60;24.90
5743;DHT22;2896;53.500;10.020;2022-08-01T06:16:11;18.60;35.60
5743;DHT22;2896;53.500;10.020;2022-08-01T06:18:38;18.70;40.50
5743;DHT22;2896;53.500;10.020;2022-08-01T06:21:05;18.90;99.90
5743;DHT22;2896;53.500;10.020;2022-08-01T06:23:31;18.90;99.90
5743;DHT22;2896;53.500;10.020;2022-08-01T06:25:58;18.90;99.90
5743;DHT22;2896;53.500;10.020;2022-08-01T06:28:25;18.20;99.90
5743;DHT22;2896;53.500;10.020;2022-08-01T06:30:53;19.10;69.90
5743;DHT22;2896;53.500;10.020;2022-08-01T06:33:20;19.20;1.00
5743;DHT22;2896;53.500;10.020;2022-08-01T06:35:46;19.30;1.00
5743;DHT22;2896;53.500;10.020;2022-08-01T06:38:13;19.30;1.00
5743;DHT22;2896;53.500;10.020;2022-08-01T06:40:40;19.40;1.00
5743;DHT22;2896;53.500;10.020;2022-08-01T06:43:07;19.40;1.00
5743;DHT22;2896;53.500;10.020;2022-08-01T06:45:33;19.50;1.00
5743;DHT22;2896;53.500;10.020;2022-08-01T06:48:03;19.50;1.00
5743;DHT22;2896;53.500;10.020;2022-08-01T06:50:30;19.40;1.00
5743;DHT22;2896;53.500;10.020;2022-08-01T06:52:57;19.50;1.00
5743;DHT22;2896;53.500;10.020;2022-08-01T06:55:24;19.40;1.00
5743;DHT22;2896;53.500;10.020;2022-08-01T06:57:51;19.50;1.00
5743;DHT22;2896;53.500;10.020;2022-08-01T07:00:19;19.40;1.00
5743;DHT22;2896;53.500;10.020;2022-08-01T07:02:47;19.60;1.00
5743;DHT22;2896;53.500;10.020;2022-08-01T07:05:15;19.50;1.00
5743;DHT22;2896;53.500;10.020;2022-08-01T07:07:42;19.40;99.90
5743;DHT22;2896;53.500;10.020;2022-08-01T07:10:09;19.40;99.90
5743;DHT22;2896;53.500;10.020;2022-08-01T07:12:36;19.60;99.90
5743;DHT22;2896;53.500;10.020;2022-08-01T07:15:04;19.60;99.90
5743;DHT22;2896;53.500;10.020;2022-08-01T07:17:31;19.70;99.90
5743;DHT22;2896;53.500;10.020;2022-08-01T07:19:57;19.60;99.90
5743;DHT22;2896;53.500;10.020;2022-08-01T07:22:25;19.50;99.90
5743;DHT22;2896;53.500;10.020;2022-08-01T07:24:52;19.50;99.90
5743;DHT22;2896;53.500;10.020;2022-08-01T07:27:18;19.40;99.90
5743;DHT22;2896;53.500;10.020;2022-08-01T07:29:45;19.50;99.90
5743;DHT22;2896;53.500;10.020;2022-08-01T07:32:11;19.40;99.90
5743;DHT22;2896;53.500;10.020;2022-08-01T07:34:38;19.50;99.90
5743;DHT22;2896;53.500;10.020;2022-08-01T07:37:05;19.40;99.90
5743;DHT22;2896;53.500;10.020;2022-08-01T07:39:33;19.40;99.90
5743;DHT22;2896;53.500;10.020;2022-08-01T07:41:59;19.30;99.90
5743;DHT22;2896;53.500;10.020;2022-08-01T07:44:26;19.30;99.90
5743;DHT22;2896;53.500;10.020;2022-08-01T07:46:52;19.20;99.90
5743;DHT22;2896;53.500;10.020;2022-08-01T07:49:19;19.20;99.90
5743;DHT22;2896;53.500;10.020;2022-08-01T07:51:47;19.30;99.90
5743;DHT22;2896;53.500;10.020;2022-08-01T07:54:13;19.40;99.90
5743;DHT22;2896;53.500;10.020;2022-08-01T07:56:41;19.50;99.90
5743;DHT22;2896;53.500;10.020;2022-08-01T07:59:08;19.50;99.90
5743;DHT22;2896;53.500;10.020;2022-08-01T08:01:35;19.60;99.90
5743;DHT22;2896;53.500;10.020;2022-08-01T08:04:02;19.70;99.90
5743;DHT22;2896;53.500;10.020;2022-08-01T08:06:29;19.80;99.90
5743;DHT22;2896;53.500;10.020;2022-08-01T08:08:55;20.00;99.90
5743;DHT22;2896;53.500;10.020;2022-08-01T08:11:22;20.20;99.90
5743;DHT22;2896;53.500;10.020;2022-08-01T08:13:50;20.40;99.90
5743;DHT22;2896;53.500;10.020;2022-08-01T08:16:16;20.50;99.90
5743;DHT22;2896;53.500;10.020;2022-08-01T08:18:43;20.50;99.90
5743;DHT22;2896;53.500;10.020;2022-08-01T08:21:10;20.60;99.90
5743;DHT22;2896;53.500;10.020;2022-08-01T08:23:36;20.50;99.90
5743;DHT22;2896;53.500;10.020;2022-08-01T08:26:20;20.60;99.90
5743;DHT22;2896;53.500;10.020;2022-08-01T08:28:50;20.80;99.90
5743;DHT22;2896;53.500;10.020;2022-08-01T08:31:16;20.80;99.90
5743;DHT22;2896;53.500;10.020;2022-08-01T08:33:43;20.90;99.90
5743;DHT22;2896;53.500;10.020;2022-08-01T08:36:09;20.70;99.90
5743;DHT22;2896;53.500;10.020;2022-08-01T08:38:36;20.50;99.90
5743;DHT22;2896;53.500;10.020;2022-08-01T08:41:03;20.60;99.90
5743;DHT22;2896;53.500;10.020;2022-08-01T08:43:30;20.80;99.90
5743;DHT22;2896;53.500;10.020;2022-08-01T08:45:58;21.00;99.90
5743;DHT22;2896;53.500;10.020;2022-08-01T08:48:25;21.10;99.90
5743;DHT22;2896;53.500;10.020;2022-08-01T08:50:52;21.50;99.90
5743;DHT22;2896;53.500;10.020;2022-08-01T08:53:19;21.90;99.90
5743;DHT22;2896;53.500;10.020;2022-08-01T08:55:46;21.90;99.90
5743;DHT22;2896;53.500;10.020;2022-08-01T08:58:13;21.90;99.90
5743;DHT22;2896;53.500;10.020;2022-08-01T09:00:41;22.10;99.90
5743;DHT22;2896;53.500;10.020;2022-08-01T09:03:10;21.80;99.90
5743;DHT22;2896;53.500;10.020;2022-08-01T09:05:36;22.20;99.90
5743;DHT22;2896;53.500;10.020;2022-08-01T09:08:06;22.50;99.90
5743;DHT22;2896;53.500;10.020;2022-08-01T09:10:33;22.60;99.90
5743;DHT22;2896;53.500;10.020;2022-08-01T09:13:07;22.60;99.90
5743;DHT22;2896;53.500;10.020;2022-08-01T09:15:40;22.60;99.90
5743;DHT22;2896;53.500;10.020;2022-08-01T09:18:07;22.80;99.90
5743;DHT22;2896;53.500;10.020;2022-08-01T09:20:35;22.80;99.90
5743;DHT22;2896;53.500;10.020;2022-08-01T09:23:02;23.10;99.90
5743;DHT22;2896;53.500;10.020;2022-08-01T09:25:29;23.20;99.90
5743;DHT22;2896;53.500;10.020;2022-08-01T09:28:03;23.10;99.90
5743;DHT22;2896;53.500;10.020;2022-08-01T09:30:37;23.20;99.90
5743;DHT22;2896;53.500;10.020;2022-08-01T09:33:05;25.30;99.90
5743;DHT22;2896;53.500;10.020;2022-08-01T09:35:33;23.50;99.90
5743;DHT22;2896;53.500;10.020;2022-08-01T09:38:13;23.80;99.90
5743;DHT22;2896;53.500;10.020;2022-08-01T09:40:49;24.00;99.90
5743;DHT22;2896;53.500;10.020;2022-08-01T09:43:16;24.50;99.90
5743;DHT22;2896;53.500;10.020;2022-08-01T09:45:43;24.80;99.90
5743;DHT22;2896;53.500;10.020;2022-08-01T09:48:10;23.90;99.90
5743;DHT22;2896;53.500;10.020;2022-08-01T09:50:41;24.10;99.90
5743;DHT22;2896;53.500;10.020;2022-08-01T09:53:09;25.70;99.90
5743;DHT22;2896;53.500;10.020;2022-08-01T09:55:37;24.50;99.90
5743;DHT22;2896;53.500;10.020;2022-08-01T09:58:04;24.10;99.90
5743;DHT22;2896;53.500;10.020;2022-08-01T10:00:31;24.50;99.90
5743;DHT22;2896;53.500;10.020;2022-08-01T10:02:58;24.90;99.90
5743;DHT22;2896;53.500;10.020;2022-08-01T10:05:32;24.50;99.90
5743;DHT22;2896;53.500;10.020;2022-08-01T10:08:00;24.60;99.90
5743;DHT22;2896;53.500;10.020;2022-08-01T10:10:27;24.10;99.90
5743;DHT22;2896;53.500;10.020;2022-08-01T10:12:56;24.40;99.90
5743;DHT22;2896;53.500;10.020;2022-08-01T10:15:24;24.50;99.90
5743;DHT22;2896;53.500;10.020;2022-08-01T10:17:54;24.30;99.90
5743;DHT22;2896;53.500;10.020;2022-08-01T10:20:23;24.30;99.90
5743;DHT22;2896;53.500;10.020;2022-08-01T10:22:52;24.70;99.90
5743;DHT22;2896;53.500;10.020;2022-08-01T10:25:20;25.00;99.90
5743;DHT22;2896;53.500;10.020;2022-08-01T10:27:49;24.70;99.90
5743;DHT22;2896;53.500;10.020;2022-08-01T10:30:17;24.90;99.90
5743;DHT22;2896;53.500;10.020;2022-08-01T10:32:45;24.80;99.90
5743;DHT22;2896;53.500;10.020;2022-08-01T10:35:12;25.20;99.90
5743;DHT22;2896;53.500;10.020;2022-08-01T10:37:43;25.40;99.90
5743;DHT22;2896;53.500;10.020;2022-08-01T10:40:12;25.40;99.90
5743;DHT22;2896;53.500;10.020;2022-08-01T10:42:39;25.70;99.90
5743;DHT22;2896;53.500;10.020;2022-08-01T10:45:07;25.60;99.90
5743;DHT22;2896;53.500;10.020;2022-08-01T10:47:42;25.70;99.90
5743;DHT22;2896;53.500;10.020;2022-08-01T10:50:13;25.80;99.90
5743;DHT22;2896;53.500;10.020;2022-08-01T10:52:42;25.80;99.90
5743;DHT22;2896;53.500;10.020;2022-08-01T10:55:28;26.10;99.90
5743;DHT22;2896;53.500;10.020;2022-08-01T10:58:10;26.10;99.90
5743;DHT22;2896;53.500;10.020;2022-08-01T11:00:37;26.40;99.90
5743;DHT22;2896;53.500;10.020;2022-08-01T11:03:05;26.60;99.90
5743;DHT22;2896;53.500;10.020;2022-08-01T11:05:33;26.40;99.90
5743;DHT22;2896;53.500;10.020;2022-08-01T11:08:02;26.40;99.90
5743;DHT22;2896;53.500;10.020;2022-08-01T11:10:37;26.60;99.90
5743;DHT22;2896;53.500;10.020;2022-08-01T11:13:04;26.50;99.90
5743;DHT22;2896;53.500;10.020;2022-08-01T11:15:33;26.70;99.90
5743;DHT22;2896;53.500;10.020;2022-08-01T11:18:28;26.80;99.90
5743;DHT22;2896;53.500;10.020;2022-08-01T11:20:57;26.60;99.90
5743;DHT22;2896;53.500;10.020;2022-08-01T11:23:25;26.90;99.90
5743;DHT22;2896;53.500;10.020;2022-08-01T11:26:10;26.90;99.90
5743;DHT22;2896;53.500;10.020;2022-08-01T11:28:37;27.20;99.90
5743;DHT22;2896;53.500;10.020;2022-08-01T11:31:30;26.70;99.90
5743;DHT22;2896;53.500;10.020;2022-08-01T11:33:57;26.70;99.90
5743;DHT22;2896;53.500;10.020;2022-08-01T11:36:26;26.80;99.90
5743;DHT22;2896;53.500;10.020;2022-08-01T11:39:13;27.10;99.90
5743;DHT22;2896;53.500;10.020;2022-08-01T11:41:41;27.40;99.90
5743;DHT22;2896;53.500;10.020;2022-08-01T11:44:10;27.20;99.90
5743;DHT22;2896;53.500;10.020;2022-08-01T11:46:51;27.00;99.90
5743;DHT22;2896;53.500;10.020;2022-08-01T11:49:32;27.40;99.90
5743;DHT22;2896;53.500;10.020;2022-08-01T11:52:07;27.30;99.90
5743;DHT22;2896;53.500;10.020;2022-08-01T11:54:35;27.30;99.90
5743;DHT22;2896;53.500;10.020;2022-08-01T11:57:04;26.50;99.90
5743;DHT22;2896;53.500;10.020;2022-08-01T11:59:37;26.70;99.90
5743;DHT22;2896;53.500;10.020;2022-08-01T12:02:18;26.60;99.90
5743;DHT22;2896;53.500;10.020;2022-08-01T12:04:46;27.20;99.90
5743;DHT22;2896;53.500;10.020;2022-08-01T12:07:15;27.40;99.90
5743;DHT22;2896;53.500;10.020;2022-08-01T12:09:42;26.90;99.90
5743;DHT22;2896;53.500;10.020;2022-08-01T12:12:09;27.10;99.90
5743;DHT22;2896;53.500;10.020;2022-08-01T12:14:36;27.60;99.90
5743;DHT22;2896;53.500;10.020;2022-08-01T12:17:03;27.60;99.90
5743;DHT22;2896;53.500;10.020;2022-08-01T12:19:29;27.80;99.90
5743;DHT22;2896;53.500;10.020;2022-08-01T12:22:11;28.20;99.90
5743;DHT22;2896;53.500;10.020;2022-08-01T12:24:40;28.10;99.90
5743;DHT22;2896;53.500;10.020;2022-08-01T12:27:08;28.10;99.90
5743;DHT22;2896;53.500;10.020;2022-08-01T12:29:37;27.90;99.90
5743;DHT22;2896;53.500;10.020;2022-08-01T12:32:04;28.20;99.90
5743;DHT22;2896;53.500;10.020;2022-08-01T12:34:31;28.30;99.90
5743;DHT22;2896;53.500;10.020;2022-08-01T12:37:01;28.20;99.90
5743;DHT22;2896;53.500;10.020;2022-08-01T12:39:34;28.10;99.90
5743;DHT22;2896;53.500;10.020;2022-08-01T12:42:06;28.10;99.90
5743;DHT22;2896;53.500;10.020;2022-08-01T12:44:33;28.10;99.90
5743;DHT22;2896;53.500;10.020;2022-08-01T12:47:01;28.00;99.90
5743;DHT22;2896;53.500;10.020;2022-08-01T12:49:28;28.00;99.90
5743;DHT22;2896;53.500;10.020;2022-08-01T12:51:55;27.90;99.90
5743;DHT22;2896;53.500;10.020;2022-08-01T12:54:22;27.60;99.90
5743;DHT22;2896;53.500;10.020;2022-08-01T12:56:50;27.60;99.90
5743;DHT22;2896;53.500;10.020;2022-08-01T12:59:24;27.80;99.90
5743;DHT22;2896;53.500;10.020;2022-08-01T13:01:52;27.50;99.90
5743;DHT22;2896;53.500;10.020;2022-08-01T13:04:19;27.60;99.90
5743;DHT22;2896;53.500;10.020;2022-08-01T13:06:47;27.50;99.90
5743;DHT22;2896;53.500;10.020;2022-08-01T13:09:14;27.40;99.90
5743;DHT22;2896;53.500;10.020;2022-08-01T13:11:40;27.20;99.90
5743;DHT22;2896;53.500;10.020;2022-08-01T13:14:09;27.20;99.90
5743;DHT22;2896;53.500;10.020;2022-08-01T13:16:46;27.40;99.90
5743;DHT22;2896;53.500;10.020;2022-08-01T13:19:13;28.00;99.90
5743;DHT22;2896;53.500;10.020;2022-08-01T13:21:53;27.50;99.90
5743;DHT22;2896;53.500;10.020;2022-08-01T13:24:25;27.90;99.90
5743;DHT22;2896;53.500;10.020;2022-08-01T13:26:54;27.30;99.90
5743;DHT22;2896;53.500;10.020;2022-08-01T13:29:30;27.80;99.90
5743;DHT22;2896;53.500;10.020;2022-08-01T13:31:58;27.60;99.90
5743;DHT22;2896;53.500;10.020;2022-08-01T13:34:33;27.30;99.90
5743;DHT22;2896;53.500;10.020;2022-08-01T13:37:00;27.30;99.90
5743;DHT22;2896;53.500;10.020;2022-08-01T13:39:28;27.00;99.90
5743;DHT22;2896;53.500;10.020;2022-08-01T13:42:06;27.30;99.90
5743;DHT22;2896;53.500;10.020;2022-08-01T13:44:32;27.50;99.90
5743;DHT22;2896;53.500;10.020;2022-08-01T13:47:01;27.60;99.90
5743;DHT22;2896;53.500;10.020;2022-08-01T13:49:28;27.10;99.90
5743;DHT22;2896;53.500;10.020;2022-08-01T13:51:54;26.90;99.90
5743;DHT22;2896;53.500;10.020;2022-08-01T13:54:21;26.90;99.90
5743;DHT22;2896;53.500;10.020;2022-08-01T13:56:48;26.40;99.90
5743;DHT22;2896;53.500;10.020;2022-08-01T13:59:15;26.50;99.90
5743;DHT22;2896;53.500;10.020;2022-08-01T14:01:42;26.20;99.90
5743;DHT22;2896;53.500;10.020;2022-08-01T14:04:10;26.30;99.90
5743;DHT22;2896;53.500;10.020;2022-08-01T14:06:37;26.60;99.90
5743;DHT22;2896;53.500;10.020;2022-08-01T14:09:04;26.40;99.90
5743;DHT22;2896;53.500;10.020;2022-08-01T14:11:32;26.60;99.90
5743;DHT22;2896;53.500;10.020;2022-08-01T14:13:59;26.90;99.90
5743;DHT22;2896;53.500;10.020;2022-08-01T14:16:25;27.30;99.90
5743;DHT22;2896;53.500;10.020;2022-08-01T14:18:52;27.60;99.90
5743;DHT22;2896;53.500;10.020;2022-08-01T14:21:20;28.00;99.90
5743;DHT22;2896;53.500;10.020;2022-08-01T14:23:47;27.70;99.90
5743;DHT22;2896;53.500;10.020;2022-08-01T14:26:13;27.60;99.90
5743;DHT22;2896;53.500;10.020;2022-08-01T14:28:40;27.40;99.90
5743;DHT22;2896;53.500;10.020;2022-08-01T14:31:07;27.10;99.90
5743;DHT22;2896;53.500;10.020;2022-08-01T14:33:34;27.10;99.90
5743;DHT22;2896;53.500;10.020;2022-08-01T14:36:01;27.10;99.90
5743;DHT22;2896;53.500;10.020;2022-08-01T14:38:29;26.80;99.90
5743;DHT22;2896;53.500;10.020;2022-08-01T14:40:55;26.80;99.90
5743;DHT22;2896;53.500;10.020;2022-08-01T14:43:22;26.70;99.90
5743;DHT22;2896;53.500;10.020;2022-08-01T14:45:48;26.50;99.90
5743;DHT22;2896;53.500;10.020;2022-08-01T14:48:17;26.90;99.90
5743;DHT22;2896;53.500;10.020;2022-08-01T14:50:44;26.60;99.90
5743;DHT22;2896;53.500;10.020;2022-08-01T14:53:11;26.40;99.90
5743;DHT22;2896;53.500;10.020;2022-08-01T14:55:39;26.00;99.90
5743;DHT22;2896;53.500;10.020;2022-08-01T14:58:06;26.40;99.90
5743;DHT22;2896;53.500;10.020;2022-08-01T15:00:32;26.50;99.90
5743;DHT22;2896;53.500;10.020;2022-08-01T15:03:00;26.60;99.90
5743;DHT22;2896;53.500;10.020;2022-08-01T15:05:26;26.60;99.90
5743;DHT22;2896;53.500;10.020;2022-08-01T15:07:54;26.60;99.90
5743;DHT22;2896;53.500;10.020;2022-08-01T15:10:20;26.70;99.90
5743;DHT22;2896;53.500;10.020;2022-08-01T15:12:49;26.30;99.90
5743;DHT22;2896;53.500;10.020;2022-08-01T15:15:16;25.80;99.90
5743;DHT22;2896;53.500;10.020;2022-08-01T15:17:42;25.80;99.90
5743;DHT22;2896;53.500;10.020;2022-08-01T15:20:10;26.00;99.90
5743;DHT22;2896;53.500;10.020;2022-08-01T15:22:37;25.80;99.90
5743;DHT22;2896;53.500;10.020;2022-08-01T15:25:04;25.10;99.90
5743;DHT22;2896;53.500;10.020;2022-08-01T15:27:31;25.10;99.90
5743;DHT22;2896;53.500;10.020;2022-08-01T15:29:59;25.20;99.90
5743;DHT22;2896;53.500;10.020;2022-08-01T15:32:26;25.00;99.90
5743;DHT22;2896;53.500;10.020;2022-08-01T15:34:52;25.20;99.90
5743;DHT22;2896;53.500;10.020;2022-08-01T15:37:19;25.40;99.90
5743;DHT22;2896;53.500;10.020;2022-08-01T15:39:46;25.20;99.90
5743;DHT22;2896;53.500;10.020;2022-08-01T15:42:14;24.90;99.90
5743;DHT22;2896;53.500;10.020;2022-08-01T15:44:42;24.90;99.90
5743;DHT22;2896;53.500;10.020;2022-08-01T15:47:10;24.90;99.90
5743;DHT22;2896;53.500;10.020;2022-08-01T15:49:37;25.10;99.90
5743;DHT22;2896;53.500;10.020;2022-08-01T15:52:05;25.30;99.90
5743;DHT22;2896;53.500;10.020;2022-08-01T15:54:31;25.40;99.90
5743;DHT22;2896;53.500;10.020;2022-08-01T15:56:59;25.40;99.90